sensor_id;sensor_type;location;lat;lon;timestamp;temperature;humidity
68801;SHT31;55784;50.734;7.086;2023-06-10T00:02:10;21.07;63.11
68801;SHT31;55784;50.734;7.086;2023-06-10T00:04:35;21.06;62.49
68801;SHT31;55784;50.734;7.086;2023-06-10T00:07:03;21.11;62.65
68801;SHT31;55784;50.734;7.086;2023-06-10T00:09:28;21.06;62.63
68801;SHT31;55784;50.734;7.086;2023-06-10T00:11:54;21.08;62.70
68801;SHT31;55784;50.734;7.086;2023-06-10T00:14:19;21.15;62.46
68801;SHT31;55784;50.734;7.086;2023-06-10T00:16:45;21.10;62.54
68801;SHT31;55784;50.734;7.086;2023-06-10T00:19:10;21.10;62.88
68801;SHT31;55784;50.734;7.086;2023-06-10T00:21:38;21.11;62.60
68801;SHT31;55784;50.734;7.086;2023-06-10T00:24:06;21.08;62.63
68801;SHT31;55784;50.734;7.086;2023-06-10T00:26:32;21.07;62.39
68801;SHT31;55784;50.734;7.086;2023-06-10T00:28:58;21.07;62.48
68801;SHT31;55784;50.734;7.086;2023-06-10T00:31:23;21.15;62.53
68801;SHT31;55784;50.734;7.086;2023-06-10T00:33:49;21.12;62.30
68801;SHT31;55784;50.734;7.086;2023-06-10T00:36:14;21.17;62.00
68801;SHT31;55784;50.734;7.086;2023-06-10T00:38:39;21.20;62.05
68801;SHT31;55784;50.734;7.086;2023-06-10T00:41:06;21.21;61.56
68801;SHT31;55784;50.734;7.086;2023-06-10T00:43:31;21.32;61.12
68801;SHT31;55784;50.734;7.086;2023-06-10T00:45:57;21.37;61.06
68801;SHT31;55784;50.734;7.086;2023-06-10T00:48:22;21.37;60.86
68801;SHT31;55784;50.734;7.086;2023-06-10T00:50:48;21.31;61.04
68801;SHT31;55784;50.734;7.086;2023-06-10T00:53:14;21.20;61.41
68801;SHT31;55784;50.734;7.086;2023-06-10T00:55:40;21.23;61.45
68801;SHT31;55784;50.734;7.086;2023-06-10T00:58:06;21.17;61.66
68801;SHT31;55784;50.734;7.086;2023-06-10T01:00:32;21.04;62.11
68801;SHT31;55784;50.734;7.086;2023-06-10T01:02:57;20.91;62.67
68801;SHT31;55784;50.734;7.086;2023-06-10T01:05:24;20.83;63.22
68801;SHT31;55784;50.734;7.086;2023-06-10T01:12:58;20.62;64.32
68801;SHT31;55784;50.734;7.086;2023-06-10T01:15:29;20.46;64.66
68801;SHT31;55784;50.734;7.086;2023-06-10T01:17:56;20.39;65.44
68801;SHT31;55784;50.734;7.086;2023-06-10T01:20:23;20.25;65.72
68801;SHT31;55784;50.734;7.086;2023-06-10T01:22:49;20.13;66.28
68801;SHT31;55784;50.734;7.086;2023-06-10T01:25:16;20.12;66.32
68801;SHT31;55784;50.734;7.086;2023-06-10T01:27:43;20.06;66.96
68801;SHT31;55784;50.734;7.086;2023-06-10T01:30:22;19.95;67.08
68801;SHT31;55784;50.734;7.086;2023-06-10T01:32:55;19.82;67.60
68801;SHT31;55784;50.734;7.086;2023-06-10T01:35:24;19.65;68.16
68801;SHT31;55784;50.734;7.086;2023-06-10T01:37:53;19.57;68.34
68801;SHT31;55784;50.734;7.086;2023-06-10T01:40:19;19.47;68.61
68801;SHT31;55784;50.734;7.086;2023-06-10T01:42:45;19.38;69.09
68801;SHT31;55784;50.734;7.086;2023-06-10T01:45:10;19.32;69.11
68801;SHT31;55784;50.734;7.086;2023-06-10T01:47:35;19.30;69.42
68801;SHT31;55784;50.734;7.086;2023-06-10T01:50:01;19.20;69.84
68801;SHT31;55784;50.734;7.086;2023-06-10T01:52:26;19.16;69.87
68801;SHT31;55784;50.734;7.086;2023-06-10T01:54:52;19.13;69.96
68801;SHT31;55784;50.734;7.086;2023-06-10T01:57:17;19.10;70.17
68801;SHT31;55784;50.734;7.086;2023-06-10T01:59:43;19.07;70.04
68801;SHT31;55784;50.734;7.086;2023-06-10T02:02:09;18.99;70.09
68801;SHT31;55784;50.734;7.086;2023-06-10T02:04:35;18.96;70.41
68801;SHT31;55784;50.734;7.086;2023-06-10T02:07:00;18.90;70.53
68801;SHT31;55784;50.734;7.086;2023-06-10T02:09:29;18.86;71.01
68801;SHT31;55784;50.734;7.086;2023-06-10T02:11:54;18.77;71.62
68801;SHT31;55784;50.734;7.086;2023-06-10T02:14:19;18.73;71.55
68801;SHT31;55784;50.734;7.086;2023-06-10T02:16:45;18.69;71.82
68801;SHT31;55784;50.734;7.086;2023-06-10T02:19:12;18.59;71.88
68801;SHT31;55784;50.734;7.086;2023-06-10T02:21:37;18.60;72.05
68801;SHT31;55784;50.734;7.086;2023-06-10T02:24:03;18.58;72.18
68801;SHT31;55784;50.734;7.086;2023-06-10T02:26:28;18.53;72.32
68801;SHT31;55784;50.734;7.086;2023-06-10T02:28:53;18.49;72.31
68801;SHT31;55784;50.734;7.086;2023-06-10T02:31:19;18.44;72.38
68801;SHT31;55784;50.734;7.086;2023-06-10T02:33:44;18.38;72.57
68801;SHT31;55784;50.734;7.086;2023-06-10T02:36:10;18.31;72.75
68801;SHT31;55784;50.734;7.086;2023-06-10T02:38:40;18.26;72.94
68801;SHT31;55784;50.734;7.086;2023-06-10T02:41:06;18.21;73.24
68801;SHT31;55784;50.734;7.086;2023-06-10T02:43:31;18.16;73.28
68801;SHT31;55784;50.734;7.086;2023-06-10T02:45:56;18.12;73.30
68801;SHT31;55784;50.734;7.086;2023-06-10T02:48:24;18.06;73.44
68801;SHT31;55784;50.734;7.086;2023-06-10T02:50:49;18.00;73.60
68801;SHT31;55784;50.734;7.086;2023-06-10T02:53:15;18.00;73.73
68801;SHT31;55784;50.734;7.086;2023-06-10T02:55:40;17.98;73.90
68801;SHT31;55784;50.734;7.086;2023-06-10T02:58:06;17.93;73.89
68801;SHT31;55784;50.734;7.086;2023-06-10T03:00:32;17.97;73.96
68801;SHT31;55784;50.734;7.086;2023-06-10T03:02:58;17.97;74.20
68801;SHT31;55784;50.734;7.086;2023-06-10T03:05:28;17.93;74.09
68801;SHT31;55784;50.734;7.086;2023-06-10T03:07:53;17.93;74.18
68801;SHT31;55784;50.734;7.086;2023-06-10T03:10:20;17.91;74.39
68801;SHT31;55784;50.734;7.086;2023-06-10T03:12:45;17.85;74.62
68801;SHT31;55784;50.734;7.086;2023-06-10T03:15:11;17.83;74.57
68801;SHT31;55784;50.734;7.086;2023-06-10T03:17:36;17.78;74.39
68801;SHT31;55784;50.734;7.086;2023-06-10T03:20:02;17.75;74.40
68801;SHT31;55784;50.734;7.086;2023-06-10T03:22:28;17.77;74.38
68801;SHT31;55784;50.734;7.086;2023-06-10T03:24:53;17.75;74.50
68801;SHT31;55784;50.734;7.086;2023-06-10T03:27:20;17.71;74.69
68801;SHT31;55784;50.734;7.086;2023-06-10T03:29:45;17.69;74.78
68801;SHT31;55784;50.734;7.086;2023-06-10T03:32:10;17.66;74.94
68801;SHT31;55784;50.734;7.086;2023-06-10T03:34:36;17.59;75.08
68801;SHT31;55784;50.734;7.086;2023-06-10T03:37:01;17.60;75.09
68801;SHT31;55784;50.734;7.086;2023-06-10T03:39:28;17.59;75.13
68801;SHT31;55784;50.734;7.086;2023-06-10T03:41:54;17.59;75.07
68801;SHT31;55784;50.734;7.086;2023-06-10T03:44:20;17.63;75.14
68801;SHT31;55784;50.734;7.086;2023-06-10T03:46:45;17.64;75.15
68801;SHT31;55784;50.734;7.086;2023-06-10T03:49:11;17.69;75.01
68801;SHT31;55784;50.734;7.086;2023-06-10T03:51:36;17.71;74.91
68801;SHT31;55784;50.734;7.086;2023-06-10T03:54:02;17.73;74.85
68801;SHT31;55784;50.734;7.086;2023-06-10T03:56:27;17.73;74.85
68801;SHT31;55784;50.734;7.086;2023-06-10T03:58:53;17.75;74.83
68801;SHT31;55784;50.734;7.086;2023-06-10T04:01:19;17.81;74.71
68801;SHT31;55784;50.734;7.086;2023-06-10T04:03:46;17.83;74.95
68801;SHT31;55784;50.734;7.086;2023-06-10T04:06:13;17.84;74.52
68801;SHT31;55784;50.734;7.086;2023-06-10T04:08:39;17.94;74.31
68801;SHT31;55784;50.734;7.086;2023-06-10T04:11:04;17.98;74.17
68801;SHT31;55784;50.734;7.086;2023-06-10T04:13:29;18.09;74.15
68801;SHT31;55784;50.734;7.086;2023-06-10T04:15:54;18.65;73.24
68801;SHT31;55784;50.734;7.086;2023-06-10T04:18:20;19.31;71.55
68801;SHT31;55784;50.734;7.086;2023-06-10T04:20:46;19.91;69.35
68801;SHT31;55784;50.734;7.086;2023-06-10T04:23:12;20.42;68.00
68801;SHT31;55784;50.734;7.086;2023-06-10T04:25:37;20.88;66.12
68801;SHT31;55784;50.734;7.086;2023-06-10T04:28:02;21.25;65.48
68801;SHT31;55784;50.734;7.086;2023-06-10T04:30:28;21.66;64.50
68801;SHT31;55784;50.734;7.086;2023-06-10T04:32:53;22.03;63.36
68801;SHT31;55784;50.734;7.086;2023-06-10T04:35:19;22.36;62.15
68801;SHT31;55784;50.734;7.086;2023-06-10T04:37:44;22.67;61.32
68801;SHT31;55784;50.734;7.086;2023-06-10T04:40:10;22.98;60.29
68801;SHT31;55784;50.734;7.086;2023-06-10T04:42:36;23.25;59.53
68801;SHT31;55784;50.734;7.086;2023-06-10T04:45:01;23.46;58.86
68801;SHT31;55784;50.734;7.086;2023-06-10T04:47:29;23.73;58.36
68801;SHT31;55784;50.734;7.086;2023-06-10T04:49:54;23.99;57.84
68801;SHT31;55784;50.734;7.086;2023-06-10T04:52:19;24.20;57.10
68801;SHT31;55784;50.734;7.086;2023-06-10T04:54:45;24.23;56.89
68801;SHT31;55784;50.734;7.086;2023-06-10T04:57:10;24.36;56.68
68801;SHT31;55784;50.734;7.086;2023-06-10T04:59:37;24.53;56.57
68801;SHT31;55784;50.734;7.086;2023-06-10T05:02:04;24.53;56.57
68801;SHT31;55784;50.734;7.086;2023-06-10T05:04:30;24.78;56.29
68801;SHT31;55784;50.734;7.086;2023-06-10T05:06:55;25.07;55.90
68801;SHT31;55784;50.734;7.086;2023-06-10T05:09:21;24.94;55.77
68801;SHT31;55784;50.734;7.086;2023-06-10T05:11:46;25.32;55.44
68801;SHT31;55784;50.734;7.086;2023-06-10T05:14:12;25.40;55.36
68801;SHT31;55784;50.734;7.086;2023-06-10T05:16:37;25.26;55.66
68801;SHT31;55784;50.734;7.086;2023-06-10T05:19:03;25.42;55.79
68801;SHT31;55784;50.734;7.086;2023-06-10T05:21:29;25.25;56.17
68801;SHT31;55784;50.734;7.086;2023-06-10T05:23:54;25.67;55.79
68801;SHT31;55784;50.734;7.086;2023-06-10T05:26:20;26.00;55.72
68801;SHT31;55784;50.734;7.086;2023-06-10T05:28:45;26.24;55.42
68801;SHT31;55784;50.734;7.086;2023-06-10T05:31:10;26.35;54.77
68801;SHT31;55784;50.734;7.086;2023-06-10T05:33:36;26.48;54.31
68801;SHT31;55784;50.734;7.086;2023-06-10T05:36:01;26.48;53.99
68801;SHT31;55784;50.734;7.086;2023-06-10T05:38:27;26.49;53.50
68801;SHT31;55784;50.734;7.086;2023-06-10T05:40:52;26.55;53.01
68801;SHT31;55784;50.734;7.086;2023-06-10T05:43:17;26.56;53.06
68801;SHT31;55784;50.734;7.086;2023-06-10T05:45:43;26.75;52.06
68801;SHT31;55784;50.734;7.086;2023-06-10T05:48:08;26.72;51.67
68801;SHT31;55784;50.734;7.086;2023-06-10T05:50:34;26.89;51.50
68801;SHT31;55784;50.734;7.086;2023-06-10T05:53:04;26.99;51.23
68801;SHT31;55784;50.734;7.086;2023-06-10T05:55:29;27.00;50.79
68801;SHT31;55784;50.734;7.086;2023-06-10T05:58:01;26.96;50.44
68801;SHT31;55784;50.734;7.086;2023-06-10T06:00:26;27.20;50.36
68801;SHT31;55784;50.734;7.086;2023-06-10T06:02:52;27.47;49.84
68801;SHT31;55784;50.734;7.086;2023-06-10T06:05:17;27.16;50.67
68801;SHT31;55784;50.734;7.086;2023-06-10T06:07:43;27.22;51.22
68801;SHT31;55784;50.734;7.086;2023-06-10T06:10:08;27.42;50.65
68801;SHT31;55784;50.734;7.086;2023-06-10T06:12:34;27.61;50.22
68801;SHT31;55784;50.734;7.086;2023-06-10T06:14:59;27.70;49.58
68801;SHT31;55784;50.734;7.086;2023-06-10T06:17:24;27.32;50.17
68801;SHT31;55784;50.734;7.086;2023-06-10T06:19:50;27.35;50.41
68801;SHT31;55784;50.734;7.086;2023-06-10T06:22:15;27.40;50.55
68801;SHT31;55784;50.734;7.086;2023-06-10T06:24:44;27.42;49.94
68801;SHT31;55784;50.734;7.086;2023-06-10T06:27:10;27.45;50.19
68801;SHT31;55784;50.734;7.086;2023-06-10T06:29:35;27.56;49.66
68801;SHT31;55784;50.734;7.086;2023-06-10T06:32:00;27.54;48.70
68801;SHT31;55784;50.734;7.086;2023-06-10T06:34:26;27.59;48.59
68801;SHT31;55784;50.734;7.086;2023-06-10T06:36:51;27.37;48.14
68801;SHT31;55784;50.734;7.086;2023-06-10T06:39:16;27.42;48.32
68801;SHT31;55784;50.734;7.086;2023-06-10T06:41:42;27.30;47.29
68801;SHT31;55784;50.734;7.086;2023-06-10T06:44:07;27.16;47.71
68801;SHT31;55784;50.734;7.086;2023-06-10T06:46:32;27.10;47.38
68801;SHT31;55784;50.734;7.086;2023-06-10T06:49:00;27.02;47.41
68801;SHT31;55784;50.734;7.086;2023-06-10T06:51:25;26.84;47.92
68801;SHT31;55784;50.734;7.086;2023-06-10T06:53:51;26.75;48.56
68801;SHT31;55784;50.734;7.086;2023-06-10T06:56:16;26.64;48.94
68801;SHT31;55784;50.734;7.086;2023-06-10T06:58:42;26.61;49.00
68801;SHT31;55784;50.734;7.086;2023-06-10T07:01:07;26.51;48.57
68801;SHT31;55784;50.734;7.086;2023-06-10T07:03:32;26.24;47.63
68801;SHT31;55784;50.734;7.086;2023-06-10T07:05:58;26.16;48.49
68801;SHT31;55784;50.734;7.086;2023-06-10T07:08:23;26.07;47.96
68801;SHT31;55784;50.734;7.086;2023-06-10T07:10:48;25.98;48.04
68801;SHT31;55784;50.734;7.086;2023-06-10T07:13:14;25.89;49.03
68801;SHT31;55784;50.734;7.086;2023-06-10T07:15:39;25.83;48.61
68801;SHT31;55784;50.734;7.086;2023-06-10T07:18:05;25.70;48.84
68801;SHT31;55784;50.734;7.086;2023-06-10T07:20:30;25.77;48.74
68801;SHT31;55784;50.734;7.086;2023-06-10T07:22:56;25.80;48.71
68801;SHT31;55784;50.734;7.086;2023-06-10T07:25:21;25.80;48.40
68801;SHT31;55784;50.734;7.086;2023-06-10T07:27:46;25.36;48.65
68801;SHT31;55784;50.734;7.086;2023-06-10T07:30:12;25.53;49.41
68801;SHT31;55784;50.734;7.086;2023-06-10T07:32:38;25.12;49.94
68801;SHT31;55784;50.734;7.086;2023-06-10T07:35:05;25.22;50.01
68801;SHT31;55784;50.734;7.086;2023-06-10T07:37:30;25.38;49.96
68801;SHT31;55784;50.734;7.086;2023-06-10T07:39:56;25.56;48.57
68801;SHT31;55784;50.734;7.086;2023-06-10T07:42:21;25.72;48.18
68801;SHT31;55784;50.734;7.086;2023-06-10T07:44:46;25.82;48.06
68801;SHT31;55784;50.734;7.086;2023-06-10T07:47:12;25.96;47.96
68801;SHT31;55784;50.734;7.086;2023-06-10T07:49:37;26.05;48.41
68801;SHT31;55784;50.734;7.086;2023-06-10T07:52:06;26.17;48.15
68801;SHT31;55784;50.734;7.086;2023-06-10T07:54:31;26.28;47.81
68801;SHT31;55784;50.734;7.086;2023-06-10T07:56:57;26.33;47.50
68801;SHT31;55784;50.734;7.086;2023-06-10T07:59:22;26.24;47.56
68801;SHT31;55784;50.734;7.086;2023-06-10T08:01:47;26.30;47.57
68801;SHT31;55784;50.734;7.086;2023-06-10T08:04:13;26.23;47.20
68801;SHT31;55784;50.734;7.086;2023-06-10T08:06:38;26.28;47.51
68801;SHT31;55784;50.734;7.086;2023-06-10T08:09:04;26.35;48.24
68801;SHT31;55784;50.734;7.086;2023-06-10T08:11:29;26.44;48.10
68801;SHT31;55784;50.734;7.086;2023-06-10T08:13:55;26.45;48.07
68801;SHT31;55784;50.734;7.086;2023-06-10T08:16:20;26.59;48.27
68801;SHT31;55784;50.734;7.086;2023-06-10T08:18:46;26.59;47.53
68801;SHT31;55784;50.734;7.086;2023-06-10T08:21:11;26.45;47.79
68801;SHT31;55784;50.734;7.086;2023-06-10T08:23:37;26.35;48.11
68801;SHT31;55784;50.734;7.086;2023-06-10T08:26:02;26.40;48.42
68801;SHT31;55784;50.734;7.086;2023-06-10T08:28:27;26.54;47.88
68801;SHT31;55784;50.734;7.086;2023-06-10T08:30:53;26.59;47.59
68801;SHT31;55784;50.734;7.086;2023-06-10T08:33:18;26.74;48.18
68801;SHT31;55784;50.734;7.086;2023-06-10T08:35:43;26.81;47.55
68801;SHT31;55784;50.734;7.086;2023-06-10T08:38:09;26.59;48.17
68801;SHT31;55784;50.734;7.086;2023-06-10T08:40:34;26.75;48.09
68801;SHT31;55784;50.734;7.086;2023-06-10T08:43:07;26.88;48.33
68801;SHT31;55784;50.734;7.086;2023-06-10T08:45:35;27.06;48.04
68801;SHT31;55784;50.734;7.086;2023-06-10T08:48:04;27.06;48.04
68801;SHT31;55784;50.734;7.086;2023-06-10T08:50:37;26.69;48.48
68801;SHT31;55784;50.734;7.086;2023-06-10T08:53:05;26.37;49.30
68801;SHT31;55784;50.734;7.086;2023-06-10T08:55:33;26.64;49.45
68801;SHT31;55784;50.734;7.086;2023-06-10T08:58:02;26.91;49.33
68801;SHT31;55784;50.734;7.086;2023-06-10T09:00:28;27.03;48.69
68801;SHT31;55784;50.734;7.086;2023-06-10T09:02:55;27.15;48.68
68801;SHT31;55784;50.734;7.086;2023-06-10T09:05:21;27.36;48.33
68801;SHT31;55784;50.734;7.086;2023-06-10T09:07:48;27.30;48.04
68801;SHT31;55784;50.734;7.086;2023-06-10T09:10:13;27.46;47.86
68801;SHT31;55784;50.734;7.086;2023-06-10T09:12:39;27.59;47.85
68801;SHT31;55784;50.734;7.086;2023-06-10T09:15:05;27.70;47.97
68801;SHT31;55784;50.734;7.086;2023-06-10T09:17:31;27.66;47.96
68801;SHT31;55784;50.734;7.086;2023-06-10T09:19:57;27.61;47.75
68801;SHT31;55784;50.734;7.086;2023-06-10T09:22:23;27.49;46.92
68801;SHT31;55784;50.734;7.086;2023-06-10T09:24:49;27.33;47.20
68801;SHT31;55784;50.734;7.086;2023-06-10T09:27:14;27.47;47.58
68801;SHT31;55784;50.734;7.086;2023-06-10T09:29:55;27.63;47.28
68801;SHT31;55784;50.734;7.086;2023-06-10T09:32:23;27.83;47.83
68801;SHT31;55784;50.734;7.086;2023-06-10T09:34:49;28.00;48.31
68801;SHT31;55784;50.734;7.086;2023-06-10T09:37:23;28.10;47.66
68801;SHT31;55784;50.734;7.086;2023-06-10T09:40:05;28.24;47.35
68801;SHT31;55784;50.734;7.086;2023-06-10T09:42:38;28.31;46.89
68801;SHT31;55784;50.734;7.086;2023-06-10T09:45:04;28.10;47.76
68801;SHT31;55784;50.734;7.086;2023-06-10T09:47:30;28.29;47.42
68801;SHT31;55784;50.734;7.086;2023-06-10T09:49:56;28.44;47.38
68801;SHT31;55784;50.734;7.086;2023-06-10T09:52:26;28.58;46.60
68801;SHT31;55784;50.734;7.086;2023-06-10T09:54:53;28.56;46.06
68801;SHT31;55784;50.734;7.086;2023-06-10T09:57:21;28.51;46.09
68801;SHT31;55784;50.734;7.086;2023-06-10T09:59:47;28.05;47.48
68801;SHT31;55784;50.734;7.086;2023-06-10T10:02:14;27.90;47.32
68801;SHT31;55784;50.734;7.086;2023-06-10T10:04:40;27.87;47.66
68801;SHT31;55784;50.734;7.086;2023-06-10T10:07:05;28.21;47.70
68801;SHT31;55784;50.734;7.086;2023-06-10T10:09:32;28.48;47.41
68801;SHT31;55784;50.734;7.086;2023-06-10T10:11:59;28.51;47.33
68801;SHT31;55784;50.734;7.086;2023-06-10T10:14:28;28.37;46.04
68801;SHT31;55784;50.734;7.086;2023-06-10T10:16:55;28.32;45.37
68801;SHT31;55784;50.734;7.086;2023-06-10T10:19:25;28.56;45.34
68801;SHT31;55784;50.734;7.086;2023-06-10T10:21:54;28.86;44.43
68801;SHT31;55784;50.734;7.086;2023-06-10T10:24:30;29.04;43.66
68801;SHT31;55784;50.734;7.086;2023-06-10T10:26:59;29.20;43.30
68801;SHT31;55784;50.734;7.086;2023-06-10T10:29:42;29.27;42.52
68801;SHT31;55784;50.734;7.086;2023-06-10T10:32:10;29.38;41.47
68801;SHT31;55784;50.734;7.086;2023-06-10T10:34:43;29.55;41.62
68801;SHT31;55784;50.734;7.086;2023-06-10T10:37:11;29.65;41.46
68801;SHT31;55784;50.734;7.086;2023-06-10T10:39:37;29.75;41.54
68801;SHT31;55784;50.734;7.086;2023-06-10T10:42:03;29.87;41.87
68801;SHT31;55784;50.734;7.086;2023-06-10T10:44:30;29.67;41.93
68801;SHT31;55784;50.734;7.086;2023-06-10T10:46:56;29.63;42.08
68801;SHT31;55784;50.734;7.086;2023-06-10T10:49:24;30.06;41.69
68801;SHT31;55784;50.734;7.086;2023-06-10T10:51:57;30.32;40.17
68801;SHT31;55784;50.734;7.086;2023-06-10T10:54:36;29.98;40.73
68801;SHT31;55784;50.734;7.086;2023-06-10T10:57:20;29.58;41.44
68801;SHT31;55784;50.734;7.086;2023-06-10T11:05:04;29.63;41.15
68801;SHT31;55784;50.734;7.086;2023-06-10T11:07:34;29.68;41.56
68801;SHT31;55784;50.734;7.086;2023-06-10T11:10:02;29.74;41.80
68801;SHT31;55784;50.734;7.086;2023-06-10T11:15:12;29.81;41.98
68801;SHT31;55784;50.734;7.086;2023-06-10T11:18:08;29.71;41.80
68801;SHT31;55784;50.734;7.086;2023-06-10T11:26:25;30.02;41.67
68801;SHT31;55784;50.734;7.086;2023-06-10T11:31:26;30.00;41.77
68801;SHT31;55784;50.734;7.086;2023-06-10T11:33:54;29.89;41.69
68801;SHT31;55784;50.734;7.086;2023-06-10T11:36:21;29.77;41.09
68801;SHT31;55784;50.734;7.086;2023-06-10T11:38:48;29.73;41.05
68801;SHT31;55784;50.734;7.086;2023-06-10T11:41:14;29.64;40.79
68801;SHT31;55784;50.734;7.086;2023-06-10T11:43:48;29.91;40.51
68801;SHT31;55784;50.734;7.086;2023-06-10T11:46:14;30.24;40.43
68801;SHT31;55784;50.734;7.086;2023-06-10T11:48:49;30.46;39.60
68801;SHT31;55784;50.734;7.086;2023-06-10T11:51:14;30.63;39.73
68801;SHT31;55784;50.734;7.086;2023-06-10T11:53:39;30.55;36.09
68801;SHT31;55784;50.734;7.086;2023-06-10T11:56:05;30.83;36.20
68801;SHT31;55784;50.734;7.086;2023-06-10T11:58:30;31.10;36.76
68801;SHT31;55784;50.734;7.086;2023-06-10T12:00:56;31.30;35.32
68801;SHT31;55784;50.734;7.086;2023-06-10T12:03:23;31.47;34.23
68801;SHT31;55784;50.734;7.086;2023-06-10T12:06:00;31.68;34.33
68801;SHT31;55784;50.734;7.086;2023-06-10T12:08:26;31.75;33.24
68801;SHT31;55784;50.734;7.086;2023-06-10T12:10:53;31.88;33.39
68801;SHT31;55784;50.734;7.086;2023-06-10T12:13:18;32.01;33.42
68801;SHT31;55784;50.734;7.086;2023-06-10T12:15:44;31.98;32.75
68801;SHT31;55784;50.734;7.086;2023-06-10T12:18:21;32.02;32.14
68801;SHT31;55784;50.734;7.086;2023-06-10T12:20:47;31.96;32.32
68801;SHT31;55784;50.734;7.086;2023-06-10T12:23:14;31.92;32.54
68801;SHT31;55784;50.734;7.086;2023-06-10T12:25:52;31.89;32.35
68801;SHT31;55784;50.734;7.086;2023-06-10T12:28:21;31.86;32.80
68801;SHT31;55784;50.734;7.086;2023-06-10T12:30:47;31.92;33.69
68801;SHT31;55784;50.734;7.086;2023-06-10T12:33:19;31.98;32.38
68801;SHT31;55784;50.734;7.086;2023-06-10T12:35:52;31.84;31.79
68801;SHT31;55784;50.734;7.086;2023-06-10T12:38:25;31.74;31.74
68801;SHT31;55784;50.734;7.086;2023-06-10T12:40:53;31.60;32.19
68801;SHT31;55784;50.734;7.086;2023-06-10T12:43:20;31.75;31.89
68801;SHT31;55784;50.734;7.086;2023-06-10T12:45:45;31.58;32.26
68801;SHT31;55784;50.734;7.086;2023-06-10T12:48:16;31.57;32.27
68801;SHT31;55784;50.734;7.086;2023-06-10T12:50:46;31.80;32.30
68801;SHT31;55784;50.734;7.086;2023-06-10T12:53:12;31.91;32.91
68801;SHT31;55784;50.734;7.086;2023-06-10T12:55:38;31.96;32.43
68801;SHT31;55784;50.734;7.086;2023-06-10T12:58:04;31.98;32.72
68801;SHT31;55784;50.734;7.086;2023-06-10T13:00:30;31.78;32.39
68801;SHT31;55784;50.734;7.086;2023-06-10T13:02:56;31.58;32.43
68801;SHT31;55784;50.734;7.086;2023-06-10T13:05:22;31.60;33.10
68801;SHT31;55784;50.734;7.086;2023-06-10T13:07:47;31.72;33.14
68801;SHT31;55784;50.734;7.086;2023-06-10T13:10:14;31.67;32.32
68801;SHT31;55784;50.734;7.086;2023-06-10T13:12:40;31.70;32.45
68801;SHT31;55784;50.734;7.086;2023-06-10T13:15:06;31.52;33.21
68801;SHT31;55784;50.734;7.086;2023-06-10T13:17:35;31.21;37.40
68801;SHT31;55784;50.734;7.086;2023-06-10T13:20:05;31.11;34.04
68801;SHT31;55784;50.734;7.086;2023-06-10T13:22:34;31.31;34.55
68801;SHT31;55784;50.734;7.086;2023-06-10T13:25:05;31.50;34.99
68801;SHT31;55784;50.734;7.086;2023-06-10T13:27:33;31.50;35.44
68801;SHT31;55784;50.734;7.086;2023-06-10T13:30:02;31.30;35.31
68801;SHT31;55784;50.734;7.086;2023-06-10T13:32:27;31.31;35.11
68801;SHT31;55784;50.734;7.086;2023-06-10T13:34:53;31.29;35.65
68801;SHT31;55784;50.734;7.086;2023-06-10T13:37:18;31.07;33.67
68801;SHT31;55784;50.734;7.086;2023-06-10T13:39:44;31.01;34.36
68801;SHT31;55784;50.734;7.086;2023-06-10T13:42:12;31.01;33.42
68801;SHT31;55784;50.734;7.086;2023-06-10T13:44:37;31.19;34.27
68801;SHT31;55784;50.734;7.086;2023-06-10T13:47:03;31.37;35.22
68801;SHT31;55784;50.734;7.086;2023-06-10T13:49:28;31.31;34.48
68801;SHT31;55784;50.734;7.086;2023-06-10T13:51:54;31.34;35.25
68801;SHT31;55784;50.734;7.086;2023-06-10T13:54:19;31.40;33.98
68801;SHT31;55784;50.734;7.086;2023-06-10T13:56:46;31.50;35.73
68801;SHT31;55784;50.734;7.086;2023-06-10T13:59:11;31.50;33.46
68801;SHT31;55784;50.734;7.086;2023-06-10T14:01:37;31.62;34.51
68801;SHT31;55784;50.734;7.086;2023-06-10T14:04:02;31.71;35.10
68801;SHT31;55784;50.734;7.086;2023-06-10T14:06:28;31.77;33.64
68801;SHT31;55784;50.734;7.086;2023-06-10T14:08:54;31.86;34.48
68801;SHT31;55784;50.734;7.086;2023-06-10T14:11:22;31.84;32.97
68801;SHT31;55784;50.734;7.086;2023-06-10T14:13:47;31.80;34.44
68801;SHT31;55784;50.734;7.086;2023-06-10T14:16:13;31.74;33.73
68801;SHT31;55784;50.734;7.086;2023-06-10T14:18:38;31.64;32.94
68801;SHT31;55784;50.734;7.086;2023-06-10T14:21:04;31.74;33.93
68801;SHT31;55784;50.734;7.086;2023-06-10T14:23:32;31.75;33.75
68801;SHT31;55784;50.734;7.086;2023-06-10T14:26:21;31.82;32.64
68801;SHT31;55784;50.734;7.086;2023-06-10T14:28:48;31.81;33.54
68801;SHT31;55784;50.734;7.086;2023-06-10T14:31:14;31.92;32.98
68801;SHT31;55784;50.734;7.086;2023-06-10T14:33:39;31.93;32.55
68801;SHT31;55784;50.734;7.086;2023-06-10T14:39:30;32.02;33.03
68801;SHT31;55784;50.734;7.086;2023-06-10T14:41:55;31.99;32.90
68801;SHT31;55784;50.734;7.086;2023-06-10T14:44:20;31.98;34.53
68801;SHT31;55784;50.734;7.086;2023-06-10T14:46:46;31.86;34.06
68801;SHT31;55784;50.734;7.086;2023-06-10T14:49:11;31.78;34.51
68801;SHT31;55784;50.734;7.086;2023-06-10T14:51:36;31.70;33.43
68801;SHT31;55784;50.734;7.086;2023-06-10T14:54:03;31.67;34.24
68801;SHT31;55784;50.734;7.086;2023-06-10T14:56:28;31.48;33.38
68801;SHT31;55784;50.734;7.086;2023-06-10T14:58:54;31.55;33.33
68801;SHT31;55784;50.734;7.086;2023-06-10T15:01:20;31.61;34.00
68801;SHT31;55784;50.734;7.086;2023-06-10T15:03:45;31.64;32.68
68801;SHT31;55784;50.734;7.086;2023-06-10T15:06:10;31.62;33.86
68801;SHT31;55784;50.734;7.086;2023-06-10T15:08:35;31.58;32.68
68801;SHT31;55784;50.734;7.086;2023-06-10T15:11:01;31.41;31.41
68801;SHT31;55784;50.734;7.086;2023-06-10T15:13:27;31.42;31.81
68801;SHT31;55784;50.734;7.086;2023-06-10T15:15:53;31.52;33.27
68801;SHT31;55784;50.734;7.086;2023-06-10T15:18:18;31.58;34.63
68801;SHT31;55784;50.734;7.086;2023-06-10T15:20:43;31.60;33.58
68801;SHT31;55784;50.734;7.086;2023-06-10T15:23:09;31.62;33.49
68801;SHT31;55784;50.734;7.086;2023-06-10T15:25:34;31.67;32.02
68801;SHT31;55784;50.734;7.086;2023-06-10T15:27:59;31.58;32.18
68801;SHT31;55784;50.734;7.086;2023-06-10T15:30:25;31.60;32.64
68801;SHT31;55784;50.734;7.086;2023-06-10T15:32:50;31.48;33.92
68801;SHT31;55784;50.734;7.086;2023-06-10T15:35:16;31.45;33.91
68801;SHT31;55784;50.734;7.086;2023-06-10T15:37:41;31.29;32.24
68801;SHT31;55784;50.734;7.086;2023-06-10T15:40:07;31.17;32.66
68801;SHT31;55784;50.734;7.086;2023-06-10T15:42:32;31.24;34.01
68801;SHT31;55784;50.734;7.086;2023-06-10T15:44:57;31.37;33.62
68801;SHT31;55784;50.734;7.086;2023-06-10T15:47:23;31.41;34.16
68801;SHT31;55784;50.734;7.086;2023-06-10T15:49:48;31.45;34.30
68801;SHT31;55784;50.734;7.086;2023-06-10T15:52:14;31.45;33.38